INDIA1 VAPO-VECC
Flight info
| Callsign | INDIA1 |
|---|---|
| Flight time | 2h 17m |
| Altitude | 39000 |
| Route | OPAKA2A OPAKA G450 JJS JJS2G |
| Aircraft | B77W/H-SDE1E2E3FGHIJ2J3J4J5M1RWXY/LB1D1 |
Departure
| Time | 2026-05-04 11:22 |
|---|---|
| Airport | Pune International Airport (VAPO) |
Arrival
| Time | 2026-05-04 13:39 |
|---|---|
| Airport | Netaji Subhash Chandra Bose International Airport (VECC) |
| Time | Latitude | Longitude | Altitude | Speed | Heading |
|---|---|---|---|---|---|
| 2026-05-04 10:36 | 18.58199 | 73.90794 | 1929 ft | 0 kts | 4° |
| 2026-05-04 11:08 | 18.58206 | 73.90794 | 1930 ft | 0 kts | 5° |
| 2026-05-04 11:10 | 18.58359 | 73.90848 | 1930 ft | 3 kts | 20° |
| 2026-05-04 11:12 | 18.58485 | 73.91658 | 1929 ft | 6 kts | 89° |
| 2026-05-04 11:12 | 18.58483 | 73.91681 | 1929 ft | 6 kts | 100° |
| 2026-05-04 11:12 | 18.58438 | 73.91749 | 1930 ft | 17 kts | 132° |
| 2026-05-04 11:12 | 18.58333 | 73.91863 | 1930 ft | 26 kts | 134° |
| 2026-05-04 11:13 | 18.58196 | 73.92013 | 1930 ft | 32 kts | 133° |
| 2026-05-04 11:13 | 18.58149 | 73.92065 | 1931 ft | 0 kts | 134° |
| 2026-05-04 11:13 | 18.58132 | 73.92083 | 1930 ft | 9 kts | 134° |
| 2026-05-04 11:13 | 18.58072 | 73.92162 | 1930 ft | 19 kts | 121° |
| 2026-05-04 11:14 | 18.58055 | 73.92208 | 1930 ft | 22 kts | 102° |
| 2026-05-04 11:16 | 18.58175 | 73.92828 | 1930 ft | 0 kts | 273° |
| 2026-05-04 11:19 | 18.58176 | 73.92813 | 1930 ft | 0 kts | 273° |
| 2026-05-04 11:22 | 18.58356 | 73.89830 | 2729 ft | 187 kts | 273° |
| 2026-05-04 11:22 | 18.58452 | 73.88508 | 3983 ft | 180 kts | 276° |
| 2026-05-04 11:23 | 18.58547 | 73.87126 | 4605 ft | 203 kts | 274° |
| 2026-05-04 11:23 | 18.58651 | 73.85508 | 4992 ft | 240 kts | 275° |
| 2026-05-04 11:24 | 18.64891 | 73.77914 | 10624 ft | 295 kts | 2° |
| 2026-05-04 11:25 | 18.66943 | 73.78409 | 11366 ft | 313 kts | 20° |
| 2026-05-04 11:25 | 18.68868 | 73.79580 | 12103 ft | 328 kts | 34° |
| 2026-05-04 11:25 | 18.70713 | 73.81102 | 12753 ft | 345 kts | 38° |
| 2026-05-04 11:26 | 18.73494 | 73.85569 | 13650 ft | 391 kts | 68° |
| 2026-05-04 11:27 | 18.81393 | 74.03573 | 19078 ft | 425 kts | 48° |
| 2026-05-04 11:28 | 18.83296 | 74.06006 | 19792 ft | 430 kts | 48° |
| 2026-05-04 11:28 | 18.85192 | 74.08415 | 20475 ft | 436 kts | 48° |
| 2026-05-04 11:28 | 18.87174 | 74.10938 | 21189 ft | 442 kts | 48° |
| 2026-05-04 11:28 | 18.89111 | 74.13416 | 21847 ft | 447 kts | 49° |
| 2026-05-04 11:29 | 18.91095 | 74.15970 | 22516 ft | 453 kts | 49° |
| 2026-05-04 11:29 | 18.93113 | 74.18581 | 23157 ft | 459 kts | 49° |
| 2026-05-04 11:29 | 18.95146 | 74.21219 | 23707 ft | 465 kts | 49° |
| 2026-05-04 11:29 | 18.97187 | 74.23871 | 24252 ft | 468 kts | 49° |
| 2026-05-04 11:31 | 19.11950 | 74.43102 | 27816 ft | 496 kts | 49° |
| 2026-05-04 11:33 | 19.27551 | 74.63482 | 30599 ft | 520 kts | 49° |
| 2026-05-04 11:33 | 19.29827 | 74.66461 | 30958 ft | 521 kts | 49° |
| 2026-05-04 11:33 | 19.32112 | 74.69455 | 31394 ft | 520 kts | 49° |
| 2026-05-04 11:34 | 19.34384 | 74.72434 | 31891 ft | 518 kts | 49° |
| 2026-05-04 11:34 | 19.36641 | 74.75393 | 32392 ft | 517 kts | 49° |
| 2026-05-04 11:34 | 19.38901 | 74.78358 | 32845 ft | 516 kts | 49° |
| 2026-05-04 11:34 | 19.41159 | 74.81320 | 33302 ft | 515 kts | 49° |
| 2026-05-04 11:35 | 19.43408 | 74.84272 | 33757 ft | 515 kts | 49° |
| 2026-05-04 11:35 | 19.45654 | 74.87222 | 34173 ft | 514 kts | 49° |
| 2026-05-04 11:35 | 19.47888 | 74.90158 | 34572 ft | 512 kts | 49° |
| 2026-05-04 11:35 | 19.50121 | 74.93094 | 35001 ft | 511 kts | 49° |
| 2026-05-04 11:36 | 19.52349 | 74.96025 | 35410 ft | 510 kts | 49° |
| 2026-05-04 11:36 | 19.54574 | 74.98952 | 35801 ft | 509 kts | 49° |
| 2026-05-04 11:36 | 19.56796 | 75.01878 | 36194 ft | 508 kts | 49° |
| 2026-05-04 11:36 | 19.59003 | 75.04785 | 36590 ft | 507 kts | 49° |
| 2026-05-04 11:37 | 19.61222 | 75.07709 | 36825 ft | 509 kts | 49° |
| 2026-05-04 11:37 | 19.63423 | 75.10610 | 36805 ft | 512 kts | 49° |
| 2026-05-04 11:37 | 19.67870 | 75.16480 | 36805 ft | 509 kts | 49° |
| 2026-05-04 11:38 | 19.70085 | 75.19405 | 36957 ft | 511 kts | 49° |
| 2026-05-04 11:38 | 19.72325 | 75.22365 | 37330 ft | 510 kts | 49° |
| 2026-05-04 11:38 | 19.74531 | 75.25281 | 37776 ft | 507 kts | 49° |
| 2026-05-04 11:38 | 19.76743 | 75.28208 | 38229 ft | 504 kts | 49° |
| 2026-05-04 11:39 | 19.78932 | 75.31104 | 38598 ft | 503 kts | 49° |
| 2026-05-04 11:39 | 19.81123 | 75.34004 | 38733 ft | 505 kts | 49° |
| 2026-05-04 11:40 | 19.90941 | 75.53804 | 38803 ft | 506 kts | 68° |
| 2026-05-04 11:41 | 19.92171 | 75.57310 | 38797 ft | 506 kts | 68° |
| 2026-05-04 11:41 | 19.94644 | 75.64248 | 38803 ft | 505 kts | 67° |
| 2026-05-04 11:42 | 19.97188 | 75.71265 | 38800 ft | 506 kts | 67° |
| 2026-05-04 11:42 | 19.99720 | 75.78273 | 38798 ft | 508 kts | 67° |
| 2026-05-04 11:43 | 20.02230 | 75.85247 | 38791 ft | 509 kts | 67° |
| 2026-05-04 11:43 | 20.04758 | 75.92286 | 38789 ft | 510 kts | 67° |
| 2026-05-04 11:44 | 20.07291 | 75.99349 | 38790 ft | 511 kts | 67° |
| 2026-05-04 11:44 | 20.09831 | 76.06438 | 38789 ft | 512 kts | 68° |
| 2026-05-04 11:45 | 20.12364 | 76.13517 | 38788 ft | 512 kts | 67° |
| 2026-05-04 11:45 | 20.14893 | 76.20596 | 38784 ft | 512 kts | 68° |
| 2026-05-04 11:46 | 20.17422 | 76.27684 | 38780 ft | 512 kts | 68° |
| 2026-05-04 11:46 | 20.19944 | 76.34762 | 38777 ft | 511 kts | 68° |
| 2026-05-04 11:47 | 20.22461 | 76.41838 | 38776 ft | 511 kts | 68° |
| 2026-05-04 11:47 | 20.24979 | 76.48927 | 38776 ft | 511 kts | 68° |
| 2026-05-04 11:48 | 20.27483 | 76.55987 | 38770 ft | 511 kts | 68° |
| 2026-05-04 11:48 | 20.29993 | 76.63072 | 38768 ft | 511 kts | 68° |
| 2026-05-04 11:49 | 20.32502 | 76.70168 | 38764 ft | 511 kts | 68° |
| 2026-05-04 11:49 | 20.35007 | 76.77262 | 38759 ft | 512 kts | 68° |
| 2026-05-04 11:50 | 20.37508 | 76.84370 | 38757 ft | 512 kts | 69° |
| 2026-05-04 11:50 | 20.39740 | 76.91542 | 38757 ft | 513 kts | 71° |
| 2026-05-04 11:51 | 20.41858 | 76.98799 | 38752 ft | 513 kts | 71° |
| 2026-05-04 11:51 | 20.44030 | 77.06113 | 38749 ft | 513 kts | 71° |
| 2026-05-04 11:52 | 20.46202 | 77.13318 | 38744 ft | 514 kts | 71° |
| 2026-05-04 11:52 | 20.48392 | 77.20577 | 38742 ft | 514 kts | 71° |
| 2026-05-04 11:53 | 20.50569 | 77.27815 | 38738 ft | 514 kts | 71° |
| 2026-05-04 11:53 | 20.52753 | 77.35096 | 38738 ft | 514 kts | 71° |
| 2026-05-04 11:55 | 20.62001 | 77.63951 | 38731 ft | 513 kts | 70° |
| 2026-05-04 11:56 | 20.64342 | 77.71154 | 38727 ft | 513 kts | 70° |
| 2026-05-04 11:56 | 20.66680 | 77.78360 | 38730 ft | 514 kts | 70° |
| 2026-05-04 11:57 | 20.69020 | 77.85574 | 38729 ft | 514 kts | 70° |
| 2026-05-04 11:57 | 20.71388 | 77.92772 | 38726 ft | 514 kts | 70° |
| 2026-05-04 11:58 | 20.73774 | 77.99971 | 38726 ft | 514 kts | 70° |
| 2026-05-04 11:58 | 20.76158 | 78.07189 | 38725 ft | 514 kts | 70° |
| 2026-05-04 11:59 | 20.78537 | 78.14418 | 38727 ft | 515 kts | 70° |
| 2026-05-04 11:59 | 20.80908 | 78.21640 | 38728 ft | 515 kts | 70° |
| 2026-05-04 12:00 | 20.83276 | 78.28865 | 38723 ft | 515 kts | 70° |
| 2026-05-04 12:00 | 20.85642 | 78.36093 | 38726 ft | 516 kts | 70° |
| 2026-05-04 12:01 | 20.88012 | 78.43343 | 38728 ft | 516 kts | 70° |
| 2026-05-04 12:02 | 20.95933 | 78.67665 | 38735 ft | 518 kts | 70° |
| 2026-05-04 12:03 | 20.98281 | 78.74901 | 38728 ft | 518 kts | 70° |
| 2026-05-04 12:03 | 21.00649 | 78.82209 | 38721 ft | 518 kts | 70° |
| 2026-05-04 12:04 | 21.03001 | 78.89482 | 38722 ft | 517 kts | 70° |
| 2026-05-04 12:04 | 21.05353 | 78.96763 | 38720 ft | 516 kts | 70° |
| 2026-05-04 12:05 | 21.07698 | 79.04037 | 38721 ft | 516 kts | 70° |
| 2026-05-04 12:05 | 21.09918 | 79.11342 | 38718 ft | 516 kts | 73° |
| 2026-05-04 12:06 | 21.11927 | 79.18725 | 38721 ft | 516 kts | 74° |
| 2026-05-04 12:06 | 21.13911 | 79.26071 | 38722 ft | 516 kts | 73° |
| 2026-05-04 12:07 | 21.15939 | 79.33445 | 38725 ft | 516 kts | 73° |
| 2026-05-04 12:07 | 21.17977 | 79.40801 | 38731 ft | 515 kts | 73° |
| 2026-05-04 12:08 | 21.20016 | 79.48162 | 38733 ft | 515 kts | 73° |
| 2026-05-04 12:08 | 21.22039 | 79.55492 | 38738 ft | 515 kts | 73° |
| 2026-05-04 12:09 | 21.24068 | 79.62861 | 38738 ft | 515 kts | 73° |
| 2026-05-04 12:09 | 21.26095 | 79.70236 | 38743 ft | 515 kts | 73° |
| 2026-05-04 12:10 | 21.28119 | 79.77616 | 38746 ft | 515 kts | 73° |
| 2026-05-04 12:10 | 21.30130 | 79.84959 | 38747 ft | 515 kts | 73° |
| 2026-05-04 12:11 | 21.32159 | 79.92383 | 38752 ft | 515 kts | 73° |
| 2026-05-04 12:11 | 21.34182 | 79.99801 | 38754 ft | 515 kts | 73° |
| 2026-05-04 12:12 | 21.36193 | 80.07186 | 38757 ft | 515 kts | 73° |
| 2026-05-04 12:12 | 21.38173 | 80.14473 | 38745 ft | 502 kts | 73° |
| 2026-05-04 12:14 | 21.45963 | 80.43268 | 38765 ft | 505 kts | 74° |
| 2026-05-04 12:15 | 21.47913 | 80.50514 | 38766 ft | 506 kts | 74° |
| 2026-05-04 12:15 | 21.49869 | 80.57791 | 38765 ft | 506 kts | 74° |
| 2026-05-04 12:16 | 21.51830 | 80.65092 | 38771 ft | 506 kts | 74° |
| 2026-05-04 12:16 | 21.53785 | 80.72374 | 38771 ft | 506 kts | 74° |
| 2026-05-04 12:17 | 21.55731 | 80.79636 | 38767 ft | 506 kts | 74° |
| 2026-05-04 12:17 | 21.57684 | 80.86946 | 38769 ft | 505 kts | 74° |
| 2026-05-04 12:18 | 21.59607 | 80.94154 | 38767 ft | 505 kts | 74° |
| 2026-05-04 12:18 | 21.61539 | 81.01409 | 38763 ft | 505 kts | 74° |
| 2026-05-04 12:19 | 21.63466 | 81.08658 | 38765 ft | 505 kts | 74° |
| 2026-05-04 12:19 | 21.65395 | 81.15930 | 38763 ft | 505 kts | 74° |
| 2026-05-04 12:20 | 21.67314 | 81.23181 | 38760 ft | 505 kts | 74° |
| 2026-05-04 12:20 | 21.69233 | 81.30443 | 38758 ft | 505 kts | 74° |
| 2026-05-04 12:21 | 21.71201 | 81.37705 | 38760 ft | 505 kts | 73° |
| 2026-05-04 12:21 | 21.73202 | 81.44956 | 38755 ft | 506 kts | 73° |
| 2026-05-04 12:22 | 21.75194 | 81.52224 | 38759 ft | 506 kts | 74° |
| 2026-05-04 12:22 | 21.77175 | 81.59496 | 38763 ft | 506 kts | 74° |
| 2026-05-04 12:23 | 21.79135 | 81.66791 | 38762 ft | 507 kts | 75° |
| 2026-05-04 12:23 | 21.80932 | 81.74110 | 38768 ft | 507 kts | 76° |
| 2026-05-04 12:24 | 21.82692 | 81.81400 | 38767 ft | 507 kts | 76° |
| 2026-05-04 12:24 | 21.84489 | 81.88740 | 38760 ft | 507 kts | 76° |
| 2026-05-04 12:25 | 21.86309 | 81.96155 | 38757 ft | 508 kts | 76° |
| 2026-05-04 12:25 | 21.88090 | 82.03461 | 38751 ft | 508 kts | 76° |
| 2026-05-04 12:26 | 21.89854 | 82.10832 | 38746 ft | 508 kts | 76° |
| 2026-05-04 12:26 | 21.91608 | 82.18199 | 38749 ft | 508 kts | 76° |
| 2026-05-04 12:27 | 21.93361 | 82.25557 | 38750 ft | 507 kts | 76° |
| 2026-05-04 12:27 | 21.95112 | 82.32916 | 38754 ft | 507 kts | 76° |
| 2026-05-04 12:28 | 21.96862 | 82.40282 | 38755 ft | 507 kts | 76° |
| 2026-05-04 12:28 | 21.98610 | 82.47659 | 38762 ft | 507 kts | 76° |
| 2026-05-04 12:29 | 22.00351 | 82.55019 | 38773 ft | 507 kts | 76° |
| 2026-05-04 12:29 | 22.02090 | 82.62391 | 38768 ft | 507 kts | 76° |
| 2026-05-04 12:30 | 22.03823 | 82.69750 | 38776 ft | 507 kts | 76° |
| 2026-05-04 12:30 | 22.05553 | 82.77115 | 38783 ft | 507 kts | 76° |
| 2026-05-04 12:31 | 22.07280 | 82.84477 | 38787 ft | 507 kts | 76° |
| 2026-05-04 12:31 | 22.09006 | 82.91859 | 38791 ft | 507 kts | 76° |
| 2026-05-04 12:32 | 22.11312 | 83.01740 | 38794 ft | 507 kts | 76° |
| 2026-05-04 12:33 | 22.13026 | 83.09104 | 38804 ft | 507 kts | 76° |
| 2026-05-04 12:33 | 22.14744 | 83.16502 | 38810 ft | 508 kts | 76° |
| 2026-05-04 12:34 | 22.16457 | 83.23895 | 38810 ft | 508 kts | 76° |
| 2026-05-04 12:34 | 22.18170 | 83.31300 | 38818 ft | 508 kts | 76° |
| 2026-05-04 12:35 | 22.19877 | 83.38701 | 38824 ft | 509 kts | 76° |
| 2026-05-04 12:35 | 22.21581 | 83.46117 | 38824 ft | 509 kts | 76° |
| 2026-05-04 12:36 | 22.23283 | 83.53539 | 38834 ft | 508 kts | 76° |
| 2026-05-04 12:36 | 22.24977 | 83.60945 | 38827 ft | 509 kts | 76° |
| 2026-05-04 12:37 | 22.26674 | 83.68375 | 38826 ft | 509 kts | 76° |
| 2026-05-04 12:37 | 22.28364 | 83.75797 | 38830 ft | 509 kts | 76° |
| 2026-05-04 12:38 | 22.30048 | 83.83207 | 38832 ft | 509 kts | 76° |
| 2026-05-04 12:38 | 22.31732 | 83.90630 | 38832 ft | 508 kts | 76° |
| 2026-05-04 12:39 | 22.33425 | 83.98042 | 38829 ft | 508 kts | 76° |
| 2026-05-04 12:39 | 22.35144 | 84.05463 | 38830 ft | 508 kts | 76° |
| 2026-05-04 12:40 | 22.36860 | 84.12878 | 38829 ft | 508 kts | 76° |
| 2026-05-04 12:40 | 22.38577 | 84.20337 | 38831 ft | 508 kts | 76° |
| 2026-05-04 12:41 | 22.40276 | 84.27744 | 38826 ft | 508 kts | 76° |
| 2026-05-04 12:41 | 22.41974 | 84.35162 | 38835 ft | 508 kts | 76° |
| 2026-05-04 12:42 | 22.43668 | 84.42579 | 38834 ft | 508 kts | 76° |
| 2026-05-04 12:42 | 22.45356 | 84.49988 | 38831 ft | 508 kts | 76° |
| 2026-05-04 12:43 | 22.47031 | 84.57355 | 38825 ft | 508 kts | 76° |
| 2026-05-04 12:43 | 22.48714 | 84.64770 | 38821 ft | 508 kts | 76° |
| 2026-05-04 12:44 | 22.50395 | 84.72198 | 38812 ft | 508 kts | 76° |
| 2026-05-04 12:44 | 22.52076 | 84.79643 | 38829 ft | 509 kts | 76° |
| 2026-05-04 12:45 | 22.53742 | 84.87096 | 38833 ft | 510 kts | 76° |
| 2026-05-04 12:45 | 22.55355 | 84.94583 | 38842 ft | 511 kts | 77° |
| 2026-05-04 12:46 | 22.56949 | 85.02040 | 38863 ft | 513 kts | 77° |
| 2026-05-04 12:46 | 22.58561 | 85.09568 | 38864 ft | 514 kts | 77° |
| 2026-05-04 12:47 | 22.60188 | 85.17160 | 38866 ft | 515 kts | 77° |
| 2026-05-04 12:47 | 22.61803 | 85.24712 | 38870 ft | 517 kts | 77° |
| 2026-05-04 12:48 | 22.63444 | 85.32406 | 38884 ft | 526 kts | 77° |
| 2026-05-04 12:48 | 22.65096 | 85.40167 | 38874 ft | 529 kts | 77° |
| 2026-05-04 12:49 | 22.66747 | 85.47948 | 38869 ft | 530 kts | 77° |
| 2026-05-04 12:49 | 22.68392 | 85.55719 | 38865 ft | 529 kts | 77° |
| 2026-05-04 12:50 | 22.70028 | 85.63470 | 38865 ft | 527 kts | 77° |
| 2026-05-04 12:50 | 22.71653 | 85.71184 | 38861 ft | 525 kts | 77° |
| 2026-05-04 12:51 | 22.73273 | 85.78894 | 38858 ft | 523 kts | 77° |
| 2026-05-04 12:51 | 22.74881 | 85.86570 | 38834 ft | 522 kts | 77° |
| 2026-05-04 12:52 | 22.76485 | 85.94241 | 38807 ft | 521 kts | 77° |
| 2026-05-04 12:52 | 22.78083 | 86.01910 | 38790 ft | 521 kts | 78° |
| 2026-05-04 12:53 | 22.79677 | 86.09571 | 38718 ft | 523 kts | 78° |
| 2026-05-04 12:53 | 22.80277 | 86.13499 | 37922 ft | 533 kts | 89° |
| 2026-05-04 12:53 | 22.80042 | 86.17479 | 37265 ft | 527 kts | 103° |
| 2026-05-04 12:53 | 22.79076 | 86.21293 | 36510 ft | 521 kts | 116° |
| 2026-05-04 12:54 | 22.77385 | 86.24715 | 35969 ft | 509 kts | 127° |
| 2026-05-04 12:54 | 22.75464 | 86.27909 | 35727 ft | 499 kts | 127° |
| 2026-05-04 12:54 | 22.73648 | 86.30950 | 35732 ft | 493 kts | 127° |
| 2026-05-04 12:55 | 22.69894 | 86.37430 | 35713 ft | 509 kts | 126° |
| 2026-05-04 12:55 | 22.66197 | 86.44023 | 35705 ft | 513 kts | 121° |
| 2026-05-04 12:56 | 22.63890 | 86.51378 | 35718 ft | 520 kts | 102° |
| 2026-05-04 12:56 | 22.63578 | 86.59221 | 35723 ft | 522 kts | 90° |
| 2026-05-04 12:57 | 22.63858 | 86.67021 | 35715 ft | 521 kts | 89° |
| 2026-05-04 12:57 | 22.64110 | 86.74890 | 35711 ft | 520 kts | 90° |
| 2026-05-04 12:58 | 22.64287 | 86.82716 | 35715 ft | 519 kts | 90° |
| 2026-05-04 12:58 | 22.64432 | 86.90469 | 35716 ft | 518 kts | 90° |
| 2026-05-04 12:59 | 22.64575 | 86.98275 | 35713 ft | 519 kts | 90° |
| 2026-05-04 12:59 | 22.64721 | 87.06137 | 35709 ft | 519 kts | 90° |
| 2026-05-04 13:00 | 22.64863 | 87.13942 | 35708 ft | 519 kts | 90° |
| 2026-05-04 13:00 | 22.65002 | 87.21763 | 35709 ft | 519 kts | 90° |
| 2026-05-04 13:01 | 22.65759 | 87.29483 | 35698 ft | 518 kts | 69° |
| 2026-05-04 13:01 | 22.67459 | 87.32869 | 35710 ft | 514 kts | 50° |
| 2026-05-04 13:01 | 22.69059 | 87.34756 | 35718 ft | 511 kts | 38° |
| 2026-05-04 13:01 | 22.73014 | 87.37514 | 35707 ft | 503 kts | 19° |
| 2026-05-04 13:02 | 22.76299 | 87.38649 | 35715 ft | 495 kts | 6° |
| 2026-05-04 13:02 | 22.81938 | 87.38754 | 35703 ft | 481 kts | 343° |
| 2026-05-04 13:02 | 22.85082 | 87.37679 | 35703 ft | 470 kts | 329° |
| 2026-05-04 13:03 | 22.87802 | 87.35813 | 35706 ft | 460 kts | 314° |
| 2026-05-04 13:03 | 22.89998 | 87.33267 | 35710 ft | 451 kts | 301° |
| 2026-05-04 13:03 | 22.91542 | 87.30354 | 35706 ft | 446 kts | 290° |
| 2026-05-04 13:04 | 22.93270 | 87.23993 | 35696 ft | 440 kts | 273° |
| 2026-05-04 13:04 | 22.93156 | 87.20705 | 35714 ft | 435 kts | 262° |
| 2026-05-04 13:04 | 22.92770 | 87.17460 | 35705 ft | 435 kts | 261° |
| 2026-05-04 13:05 | 22.91933 | 87.10892 | 35703 ft | 436 kts | 261° |
| 2026-05-04 13:05 | 22.91162 | 87.04404 | 35703 ft | 436 kts | 262° |
| 2026-05-04 13:06 | 22.90424 | 86.97817 | 35707 ft | 436 kts | 262° |
| 2026-05-04 13:06 | 22.89911 | 86.91330 | 35697 ft | 435 kts | 274° |
| 2026-05-04 13:06 | 22.90687 | 86.88112 | 35716 ft | 442 kts | 291° |
| 2026-05-04 13:07 | 22.92288 | 86.85292 | 35727 ft | 450 kts | 305° |
| 2026-05-04 13:07 | 22.94560 | 86.82861 | 35717 ft | 459 kts | 317° |
| 2026-05-04 13:07 | 22.97293 | 86.80996 | 35718 ft | 469 kts | 329° |
| 2026-05-04 13:07 | 23.00400 | 86.79834 | 35705 ft | 481 kts | 343° |
| 2026-05-04 13:08 | 23.03734 | 86.79599 | 35713 ft | 493 kts | 0° |
| 2026-05-04 13:08 | 23.07159 | 86.80430 | 35720 ft | 505 kts | 17° |
| 2026-05-04 13:08 | 23.10300 | 86.82226 | 35721 ft | 514 kts | 32° |
| 2026-05-04 13:08 | 23.13007 | 86.84787 | 35713 ft | 520 kts | 46° |
| 2026-05-04 13:09 | 23.15126 | 86.87928 | 35710 ft | 524 kts | 60° |
| 2026-05-04 13:09 | 23.16518 | 86.91574 | 35697 ft | 525 kts | 77° |
| 2026-05-04 13:09 | 23.16913 | 86.95488 | 35705 ft | 521 kts | 96° |
| 2026-05-04 13:09 | 23.16187 | 86.99307 | 35708 ft | 513 kts | 115° |
| 2026-05-04 13:10 | 23.14433 | 87.02619 | 35709 ft | 501 kts | 135° |
| 2026-05-04 13:10 | 23.11870 | 87.05081 | 35708 ft | 486 kts | 155° |
| 2026-05-04 13:10 | 23.08827 | 87.06476 | 35552 ft | 468 kts | 173° |
| 2026-05-04 13:10 | 23.05647 | 87.06915 | 35227 ft | 456 kts | 185° |
| 2026-05-04 13:11 | 23.02504 | 87.06683 | 34860 ft | 448 kts | 194° |
| 2026-05-04 13:11 | 22.99504 | 87.05909 | 34525 ft | 441 kts | 202° |
| 2026-05-04 13:11 | 22.96515 | 87.05181 | 34116 ft | 446 kts | 187° |
| 2026-05-04 13:11 | 22.93394 | 87.05596 | 33735 ft | 461 kts | 168° |
| 2026-05-04 13:12 | 22.90452 | 87.07037 | 33452 ft | 469 kts | 154° |
| 2026-05-04 13:12 | 22.87818 | 87.09156 | 33205 ft | 474 kts | 143° |
| 2026-05-04 13:12 | 22.85509 | 87.11711 | 32923 ft | 477 kts | 135° |
| 2026-05-04 13:12 | 22.83539 | 87.14626 | 32587 ft | 482 kts | 123° |
| 2026-05-04 13:13 | 22.82320 | 87.18016 | 32241 ft | 489 kts | 107° |
| 2026-05-04 13:13 | 22.81585 | 87.21612 | 31979 ft | 487 kts | 103° |
| 2026-05-04 13:13 | 22.80983 | 87.25221 | 31720 ft | 485 kts | 102° |
| 2026-05-04 13:13 | 22.80407 | 87.28803 | 31452 ft | 483 kts | 103° |
| 2026-05-04 13:14 | 22.79800 | 87.32388 | 31179 ft | 480 kts | 103° |
| 2026-05-04 13:14 | 22.79160 | 87.35925 | 30908 ft | 478 kts | 104° |
| 2026-05-04 13:14 | 22.78488 | 87.39451 | 30650 ft | 475 kts | 104° |
| 2026-05-04 13:14 | 22.77803 | 87.42938 | 30399 ft | 473 kts | 105° |
| 2026-05-04 13:15 | 22.77108 | 87.46422 | 30147 ft | 471 kts | 105° |
| 2026-05-04 13:15 | 22.76417 | 87.49867 | 29894 ft | 469 kts | 105° |
| 2026-05-04 13:15 | 22.75726 | 87.53320 | 29593 ft | 462 kts | 105° |
| 2026-05-04 13:15 | 22.75055 | 87.56679 | 28990 ft | 453 kts | 105° |
| 2026-05-04 13:16 | 22.74395 | 87.59986 | 28158 ft | 450 kts | 104° |
| 2026-05-04 13:16 | 22.73732 | 87.63307 | 27394 ft | 447 kts | 104° |
| 2026-05-04 13:16 | 22.73078 | 87.66580 | 26699 ft | 441 kts | 104° |
| 2026-05-04 13:16 | 22.72432 | 87.69808 | 26069 ft | 435 kts | 104° |
| 2026-05-04 13:17 | 22.71796 | 87.72986 | 25452 ft | 429 kts | 104° |
| 2026-05-04 13:17 | 22.71169 | 87.76118 | 24854 ft | 423 kts | 104° |
| 2026-05-04 13:17 | 22.70550 | 87.79205 | 24182 ft | 414 kts | 104° |
| 2026-05-04 13:17 | 22.69947 | 87.82205 | 23435 ft | 410 kts | 104° |
| 2026-05-04 13:18 | 22.69346 | 87.85194 | 22538 ft | 405 kts | 104° |
| 2026-05-04 13:18 | 22.68752 | 87.88142 | 21711 ft | 399 kts | 104° |
| 2026-05-04 13:18 | 22.68160 | 87.91080 | 20924 ft | 393 kts | 104° |
| 2026-05-04 13:18 | 22.67579 | 87.93963 | 20176 ft | 387 kts | 103° |
| 2026-05-04 13:19 | 22.67016 | 87.96753 | 19455 ft | 382 kts | 103° |
| 2026-05-04 13:19 | 22.66449 | 87.99548 | 18736 ft | 377 kts | 104° |
| 2026-05-04 13:19 | 22.65568 | 88.02177 | 17968 ft | 370 kts | 121° |
| 2026-05-04 13:19 | 22.64190 | 88.04498 | 17169 ft | 364 kts | 125° |
| 2026-05-04 13:20 | 22.62797 | 88.06753 | 16658 ft | 353 kts | 125° |
| 2026-05-04 13:20 | 22.62337 | 88.07503 | 16540 ft | 348 kts | 124° |
| 2026-05-04 13:20 | 22.62180 | 88.07761 | 16494 ft | 346 kts | 124° |
| 2026-05-04 13:21 | 22.61028 | 88.09665 | 16198 ft | 335 kts | 124° |
| 2026-05-04 13:21 | 22.59785 | 88.11746 | 15833 ft | 324 kts | 124° |
| 2026-05-04 13:21 | 22.58582 | 88.13778 | 15439 ft | 317 kts | 123° |
| 2026-05-04 13:21 | 22.57407 | 88.15771 | 14978 ft | 313 kts | 123° |
| 2026-05-04 13:22 | 22.56257 | 88.17722 | 14477 ft | 311 kts | 123° |
| 2026-05-04 13:22 | 22.55100 | 88.19705 | 13987 ft | 309 kts | 122° |
| 2026-05-04 13:22 | 22.54023 | 88.21699 | 13503 ft | 307 kts | 121° |
| 2026-05-04 13:22 | 22.52961 | 88.23698 | 12974 ft | 304 kts | 121° |
| 2026-05-04 13:23 | 22.51906 | 88.25669 | 12469 ft | 302 kts | 121° |
| 2026-05-04 13:23 | 22.50800 | 88.27574 | 11961 ft | 299 kts | 131° |
| 2026-05-04 13:23 | 22.49208 | 88.28967 | 11430 ft | 294 kts | 155° |
| 2026-05-04 13:23 | 22.47262 | 88.29496 | 10916 ft | 288 kts | 184° |
| 2026-05-04 13:24 | 22.45292 | 88.29158 | 10440 ft | 284 kts | 193° |
| 2026-05-04 13:24 | 22.43341 | 88.28843 | 9955 ft | 284 kts | 180° |
| 2026-05-04 13:24 | 22.41374 | 88.29070 | 9457 ft | 284 kts | 171° |
| 2026-05-04 13:25 | 22.37560 | 88.29854 | 8966 ft | 250 kts | 169° |
| 2026-05-04 13:25 | 22.36122 | 88.30166 | 9689 ft | 202 kts | 170° |
| 2026-05-04 13:25 | 22.34586 | 88.30504 | 8544 ft | 246 kts | 169° |
| 2026-05-04 13:25 | 22.32801 | 88.30884 | 8030 ft | 269 kts | 169° |
| 2026-05-04 13:26 | 22.30945 | 88.31270 | 7906 ft | 274 kts | 169° |
| 2026-05-04 13:26 | 22.29066 | 88.31654 | 7827 ft | 276 kts | 169° |
| 2026-05-04 13:26 | 22.27180 | 88.32035 | 7821 ft | 275 kts | 169° |
| 2026-05-04 13:26 | 22.25299 | 88.32413 | 7822 ft | 275 kts | 169° |
| 2026-05-04 13:27 | 22.23421 | 88.32787 | 7824 ft | 274 kts | 169° |
| 2026-05-04 13:27 | 22.21548 | 88.33160 | 7766 ft | 276 kts | 169° |
| 2026-05-04 13:27 | 22.19655 | 88.33600 | 7350 ft | 280 kts | 160° |
| 2026-05-04 13:27 | 22.18012 | 88.34739 | 6821 ft | 286 kts | 133° |
| 2026-05-04 13:28 | 22.16995 | 88.36590 | 6339 ft | 292 kts | 107° |
| 2026-05-04 13:28 | 22.16708 | 88.38763 | 5837 ft | 296 kts | 93° |
| 2026-05-04 13:28 | 22.16676 | 88.41007 | 5323 ft | 300 kts | 90° |
| 2026-05-04 13:28 | 22.16693 | 88.43259 | 4807 ft | 304 kts | 90° |
| 2026-05-04 13:29 | 22.16721 | 88.45566 | 4283 ft | 307 kts | 90° |
| 2026-05-04 13:29 | 22.16755 | 88.47880 | 3757 ft | 310 kts | 90° |
| 2026-05-04 13:29 | 22.16834 | 88.50204 | 3221 ft | 307 kts | 84° |
| 2026-05-04 13:29 | 22.17528 | 88.52383 | 2660 ft | 312 kts | 59° |
| 2026-05-04 13:30 | 22.19026 | 88.54088 | 2154 ft | 317 kts | 35° |
| 2026-05-04 13:30 | 22.21021 | 88.54950 | 1924 ft | 312 kts | 10° |
| 2026-05-04 13:30 | 22.23160 | 88.54838 | 1841 ft | 299 kts | 344° |
| 2026-05-04 13:30 | 22.24995 | 88.53987 | 1838 ft | 283 kts | 332° |
| 2026-05-04 13:31 | 22.26686 | 88.52989 | 1811 ft | 270 kts | 330° |
| 2026-05-04 13:31 | 22.28276 | 88.52013 | 1811 ft | 256 kts | 330° |
| 2026-05-04 13:31 | 22.29783 | 88.51080 | 1809 ft | 242 kts | 330° |
| 2026-05-04 13:31 | 22.31201 | 88.50198 | 1824 ft | 232 kts | 330° |
| 2026-05-04 13:32 | 22.32599 | 88.49327 | 1842 ft | 231 kts | 329° |
| 2026-05-04 13:32 | 22.33985 | 88.48461 | 1836 ft | 228 kts | 329° |
| 2026-05-04 13:32 | 22.35342 | 88.47616 | 1842 ft | 222 kts | 329° |
| 2026-05-04 13:32 | 22.36644 | 88.46803 | 1864 ft | 211 kts | 329° |
| 2026-05-04 13:33 | 22.37883 | 88.46028 | 1857 ft | 201 kts | 329° |
| 2026-05-04 13:33 | 22.39091 | 88.45270 | 1855 ft | 202 kts | 329° |
| 2026-05-04 13:33 | 22.40309 | 88.44505 | 1844 ft | 201 kts | 329° |
| 2026-05-04 13:33 | 22.41501 | 88.43754 | 1827 ft | 199 kts | 329° |
| 2026-05-04 13:34 | 22.42714 | 88.43038 | 1827 ft | 194 kts | 340° |
| 2026-05-04 13:34 | 22.44039 | 88.42731 | 1873 ft | 199 kts | 350° |
| 2026-05-04 13:34 | 22.45414 | 88.42519 | 1878 ft | 199 kts | 359° |
| 2026-05-04 13:34 | 22.46794 | 88.42588 | 1857 ft | 196 kts | 7° |
| 2026-05-04 13:35 | 22.48107 | 88.42738 | 1836 ft | 184 kts | 8° |
| 2026-05-04 13:35 | 22.50585 | 88.43032 | 1852 ft | 178 kts | 8° |
| 2026-05-04 13:35 | 22.51725 | 88.43166 | 1871 ft | 180 kts | 8° |
| 2026-05-04 13:36 | 22.52980 | 88.43314 | 1870 ft | 182 kts | 8° |
| 2026-05-04 13:36 | 22.54250 | 88.43463 | 1870 ft | 184 kts | 8° |
| 2026-05-04 13:36 | 22.55527 | 88.43612 | 1678 ft | 184 kts | 8° |
| 2026-05-04 13:36 | 22.56740 | 88.43754 | 1453 ft | 166 kts | 8° |
| 2026-05-04 13:37 | 22.57857 | 88.43886 | 1256 ft | 162 kts | 8° |
| 2026-05-04 13:37 | 22.58972 | 88.44016 | 1040 ft | 163 kts | 8° |
| 2026-05-04 13:37 | 22.59971 | 88.44134 | 872 ft | 159 kts | 7° |
| 2026-05-04 13:37 | 22.60693 | 88.44217 | 743 ft | 153 kts | 9° |
| 2026-05-04 13:38 | 22.62063 | 88.44379 | 505 ft | 147 kts | 8° |
| 2026-05-04 13:38 | 22.62891 | 88.44472 | 318 ft | 142 kts | 9° |
| 2026-05-04 13:38 | 22.63547 | 88.44548 | 214 ft | 141 kts | 9° |
| 2026-05-04 13:38 | 22.64714 | 88.44686 | 36 ft | 139 kts | 10° |
| 2026-05-04 13:39 | 22.65555 | 88.44798 | 35 ft | 93 kts | 6° |
| 2026-05-04 13:39 | 22.65983 | 88.44843 | 34 ft | 51 kts | 6° |
| 2026-05-04 13:39 | 22.66283 | 88.44879 | 32 ft | 24 kts | 6° |
| 2026-05-04 13:39 | 22.66444 | 88.44897 | 31 ft | 23 kts | 5° |
| 2026-05-04 13:40 | 22.66581 | 88.44905 | 31 ft | 18 kts | 352° |
| 2026-05-04 13:40 | 22.66605 | 88.44894 | 31 ft | 0 kts | 322° |
| 2026-05-04 13:41 | 22.66616 | 88.44878 | 31 ft | 9 kts | 302° |
| 2026-05-04 13:41 | 22.66614 | 88.44838 | 32 ft | 12 kts | 250° |
| 2026-05-04 13:41 | 22.66516 | 88.44751 | 30 ft | 8 kts | 213° |
| 2026-05-04 13:42 | 22.66408 | 88.44635 | 31 ft | 16 kts | 176° |
| 2026-05-04 13:42 | 22.66233 | 88.44652 | 32 ft | 36 kts | 188° |
| 2026-05-04 13:42 | 22.66013 | 88.44605 | 34 ft | 20 kts | 195° |
| 2026-05-04 13:42 | 22.65889 | 88.44533 | 36 ft | 21 kts | 208° |
| 2026-05-04 13:43 | 22.65754 | 88.44498 | 34 ft | 21 kts | 187° |
| 2026-05-04 13:43 | 22.65662 | 88.44487 | 34 ft | 0 kts | 188° |
| 2026-05-04 13:44 | 22.65660 | 88.44487 | 34 ft | 0 kts | 188° |
| 2026-05-04 13:44 | 22.65653 | 88.44485 | 34 ft | 2 kts | 188° |
| 2026-05-04 13:45 | 22.65633 | 88.44482 | 35 ft | 4 kts | 187° |
| 2026-05-04 13:45 | 22.65602 | 88.44478 | 34 ft | 5 kts | 187° |
| 2026-05-04 13:45 | 22.65552 | 88.44472 | 34 ft | 9 kts | 185° |
| 2026-05-04 13:45 | 22.65473 | 88.44463 | 34 ft | 14 kts | 185° |
| 2026-05-04 13:46 | 22.65363 | 88.44451 | 33 ft | 18 kts | 186° |
| 2026-05-04 13:46 | 22.65225 | 88.44434 | 33 ft | 22 kts | 186° |
| 2026-05-04 13:46 | 22.65138 | 88.44408 | 33 ft | 11 kts | 218° |
| 2026-05-04 13:46 | 22.65088 | 88.44332 | 33 ft | 13 kts | 239° |
| 2026-05-04 13:47 | 22.65082 | 88.44322 | 33 ft | 0 kts | 239° |
| 2026-05-04 13:47 | 22.65056 | 88.44274 | 33 ft | 0 kts | 239° |
| 2026-05-04 13:47 | 22.65042 | 88.44250 | 33 ft | 0 kts | 239° |
| 2026-05-04 13:47 | 22.65037 | 88.44246 | 33 ft | 3 kts | 216° |
| 2026-05-04 13:48 | 22.64972 | 88.44238 | 33 ft | 16 kts | 179° |
| 2026-05-04 13:48 | 22.64832 | 88.44226 | 34 ft | 24 kts | 186° |
| 2026-05-04 13:48 | 22.64711 | 88.44211 | 34 ft | 11 kts | 186° |
| 2026-05-04 13:48 | 22.64706 | 88.44210 | 34 ft | 0 kts | 186° |
| 2026-05-04 13:49 | 22.64658 | 88.44204 | 34 ft | 14 kts | 186° |
| 2026-05-04 13:49 | 22.64514 | 88.44186 | 33 ft | 25 kts | 187° |
| 2026-05-04 13:49 | 22.64374 | 88.44167 | 33 ft | 18 kts | 185° |
| 2026-05-04 13:49 | 22.64289 | 88.44157 | 34 ft | 15 kts | 187° |
| 2026-05-04 13:50 | 22.64167 | 88.44140 | 33 ft | 18 kts | 187° |
| 2026-05-04 13:50 | 22.64095 | 88.44131 | 33 ft | 0 kts | 186° |
| 2026-05-04 13:51 | 22.64926 | 88.44154 | 34 ft | 0 kts | 277° |